sensor_id;sensor_type;location;lat;lon;timestamp;temperature;humidity
52495;DHT22;38405;53.212;5.660;2023-10-13T00:01:05;13.60;99.90
52495;DHT22;38405;53.212;5.660;2023-10-13T00:03:32;13.70;99.90
52495;DHT22;38405;53.212;5.660;2023-10-13T00:05:58;13.70;99.90
52495;DHT22;38405;53.212;5.660;2023-10-13T00:08:28;13.70;99.90
52495;DHT22;38405;53.212;5.660;2023-10-13T00:10:54;13.80;99.90
52495;DHT22;38405;53.212;5.660;2023-10-13T00:13:28;13.80;99.90
52495;DHT22;38405;53.212;5.660;2023-10-13T00:15:57;13.90;99.90
52495;DHT22;38405;53.212;5.660;2023-10-13T00:18:23;13.90;99.90
52495;DHT22;38405;53.212;5.660;2023-10-13T00:20:51;14.00;99.90
52495;DHT22;38405;53.212;5.660;2023-10-13T00:23:17;14.10;99.90
52495;DHT22;38405;53.212;5.660;2023-10-13T00:25:47;14.20;99.90
52495;DHT22;38405;53.212;5.660;2023-10-13T00:28:18;14.40;99.90
52495;DHT22;38405;53.212;5.660;2023-10-13T00:30:52;14.40;99.90
52495;DHT22;38405;53.212;5.660;2023-10-13T00:33:18;14.50;99.90
52495;DHT22;38405;53.212;5.660;2023-10-13T00:35:49;14.70;99.90
52495;DHT22;38405;53.212;5.660;2023-10-13T00:38:17;14.70;99.90
52495;DHT22;38405;53.212;5.660;2023-10-13T00:40:44;14.80;99.90
52495;DHT22;38405;53.212;5.660;2023-10-13T00:43:17;15.00;99.90
52495;DHT22;38405;53.212;5.660;2023-10-13T00:45:46;15.10;99.90
52495;DHT22;38405;53.212;5.660;2023-10-13T00:48:30;15.10;99.90
52495;DHT22;38405;53.212;5.660;2023-10-13T00:51:04;15.20;99.90
52495;DHT22;38405;53.212;5.660;2023-10-13T00:53:32;15.30;99.90
52495;DHT22;38405;53.212;5.660;2023-10-13T00:56:05;15.40;99.90
52495;DHT22;38405;53.212;5.660;2023-10-13T00:58:43;15.40;99.90
52495;DHT22;38405;53.212;5.660;2023-10-13T01:01:08;15.50;99.90
52495;DHT22;38405;53.212;5.660;2023-10-13T01:03:44;15.50;99.90
52495;DHT22;38405;53.212;5.660;2023-10-13T01:06:10;15.50;99.90
52495;DHT22;38405;53.212;5.660;2023-10-13T01:08:37;15.60;99.90
52495;DHT22;38405;53.212;5.660;2023-10-13T01:11:04;15.60;99.90
52495;DHT22;38405;53.212;5.660;2023-10-13T01:13:32;15.60;99.90
52495;DHT22;38405;53.212;5.660;2023-10-13T01:16:01;15.60;99.90
52495;DHT22;38405;53.212;5.660;2023-10-13T01:18:26;15.70;99.90
52495;DHT22;38405;53.212;5.660;2023-10-13T01:20:54;15.70;99.90
52495;DHT22;38405;53.212;5.660;2023-10-13T01:23:25;15.70;99.90
52495;DHT22;38405;53.212;5.660;2023-10-13T01:25:54;15.70;99.90
52495;DHT22;38405;53.212;5.660;2023-10-13T01:28:19;15.80;99.90
52495;DHT22;38405;53.212;5.660;2023-10-13T01:30:47;15.80;99.90
52495;DHT22;38405;53.212;5.660;2023-10-13T01:33:16;15.90;99.90
52495;DHT22;38405;53.212;5.660;2023-10-13T01:35:41;15.80;99.90
52495;DHT22;38405;53.212;5.660;2023-10-13T01:38:13;15.90;99.90
52495;DHT22;38405;53.212;5.660;2023-10-13T01:40:38;15.90;99.90
52495;DHT22;38405;53.212;5.660;2023-10-13T01:43:04;15.90;99.90
52495;DHT22;38405;53.212;5.660;2023-10-13T01:45:39;15.90;99.90
52495;DHT22;38405;53.212;5.660;2023-10-13T01:48:11;15.90;99.90
52495;DHT22;38405;53.212;5.660;2023-10-13T01:50:41;15.90;99.90
52495;DHT22;38405;53.212;5.660;2023-10-13T01:53:07;15.90;99.90
52495;DHT22;38405;53.212;5.660;2023-10-13T01:55:39;15.90;99.90
52495;DHT22;38405;53.212;5.660;2023-10-13T01:58:14;15.90;99.90
52495;DHT22;38405;53.212;5.660;2023-10-13T02:00:44;15.90;99.90
52495;DHT22;38405;53.212;5.660;2023-10-13T02:03:10;15.90;99.90
52495;DHT22;38405;53.212;5.660;2023-10-13T02:05:47;15.90;99.90
52495;DHT22;38405;53.212;5.660;2023-10-13T02:08:16;15.90;99.90
52495;DHT22;38405;53.212;5.660;2023-10-13T02:10:49;15.90;99.90
52495;DHT22;38405;53.212;5.660;2023-10-13T02:13:15;16.00;99.90
52495;DHT22;38405;53.212;5.660;2023-10-13T02:15:43;15.90;99.90
52495;DHT22;38405;53.212;5.660;2023-10-13T02:18:13;15.90;99.90
52495;DHT22;38405;53.212;5.660;2023-10-13T02:20:39;15.90;99.90
52495;DHT22;38405;53.212;5.660;2023-10-13T02:23:08;16.00;99.90
52495;DHT22;38405;53.212;5.660;2023-10-13T02:25:36;15.90;99.90
52495;DHT22;38405;53.212;5.660;2023-10-13T02:28:09;15.90;99.90
52495;DHT22;38405;53.212;5.660;2023-10-13T02:30:46;16.00;99.90
52495;DHT22;38405;53.212;5.660;2023-10-13T02:33:17;15.90;99.90
52495;DHT22;38405;53.212;5.660;2023-10-13T02:35:58;16.00;99.90
52495;DHT22;38405;53.212;5.660;2023-10-13T02:38:24;16.00;99.90
52495;DHT22;38405;53.212;5.660;2023-10-13T02:41:18;16.00;99.90
52495;DHT22;38405;53.212;5.660;2023-10-13T02:43:54;15.90;99.90
52495;DHT22;38405;53.212;5.660;2023-10-13T02:46:20;16.00;99.90
52495;DHT22;38405;53.212;5.660;2023-10-13T02:48:47;16.00;99.90
52495;DHT22;38405;53.212;5.660;2023-10-13T02:51:21;16.00;99.90
52495;DHT22;38405;53.212;5.660;2023-10-13T02:54:02;16.00;99.90
52495;DHT22;38405;53.212;5.660;2023-10-13T02:56:29;16.00;99.90
52495;DHT22;38405;53.212;5.660;2023-10-13T02:58:54;16.00;99.90
52495;DHT22;38405;53.212;5.660;2023-10-13T03:01:22;16.00;99.90
52495;DHT22;38405;53.212;5.660;2023-10-13T03:03:53;16.00;99.90
52495;DHT22;38405;53.212;5.660;2023-10-13T03:06:20;16.00;99.90
52495;DHT22;38405;53.212;5.660;2023-10-13T03:09:02;16.00;99.90
52495;DHT22;38405;53.212;5.660;2023-10-13T03:11:59;16.10;99.90
52495;DHT22;38405;53.212;5.660;2023-10-13T03:14:25;16.10;99.90
52495;DHT22;38405;53.212;5.660;2023-10-13T03:16:51;16.10;99.90
52495;DHT22;38405;53.212;5.660;2023-10-13T03:19:17;16.00;99.90
52495;DHT22;38405;53.212;5.660;2023-10-13T03:21:45;16.10;99.90
52495;DHT22;38405;53.212;5.660;2023-10-13T03:24:12;16.00;99.90
52495;DHT22;38405;53.212;5.660;2023-10-13T03:26:39;16.10;99.90
52495;DHT22;38405;53.212;5.660;2023-10-13T03:29:09;16.10;99.90
52495;DHT22;38405;53.212;5.660;2023-10-13T03:31:39;16.10;99.90
52495;DHT22;38405;53.212;5.660;2023-10-13T03:34:05;16.10;99.90
52495;DHT22;38405;53.212;5.660;2023-10-13T03:36:31;16.10;99.90
52495;DHT22;38405;53.212;5.660;2023-10-13T03:39:15;16.10;99.90
52495;DHT22;38405;53.212;5.660;2023-10-13T03:41:40;16.10;99.90
52495;DHT22;38405;53.212;5.660;2023-10-13T03:44:06;16.10;99.90
52495;DHT22;38405;53.212;5.660;2023-10-13T03:46:54;16.10;99.90
52495;DHT22;38405;53.212;5.660;2023-10-13T03:49:20;16.10;99.90
52495;DHT22;38405;53.212;5.660;2023-10-13T03:51:47;16.10;99.90
52495;DHT22;38405;53.212;5.660;2023-10-13T03:54:13;16.10;99.90
52495;DHT22;38405;53.212;5.660;2023-10-13T03:56:42;16.10;99.90
52495;DHT22;38405;53.212;5.660;2023-10-13T03:59:09;16.10;99.90
52495;DHT22;38405;53.212;5.660;2023-10-13T04:01:36;16.10;99.90
52495;DHT22;38405;53.212;5.660;2023-10-13T04:04:14;16.10;99.90
52495;DHT22;38405;53.212;5.660;2023-10-13T04:07:00;16.10;99.90
52495;DHT22;38405;53.212;5.660;2023-10-13T04:09:38;16.10;99.90
52495;DHT22;38405;53.212;5.660;2023-10-13T04:12:13;16.10;99.90
52495;DHT22;38405;53.212;5.660;2023-10-13T04:14:45;16.10;99.90
52495;DHT22;38405;53.212;5.660;2023-10-13T04:17:22;16.10;99.90
52495;DHT22;38405;53.212;5.660;2023-10-13T04:19:49;16.10;99.90
52495;DHT22;38405;53.212;5.660;2023-10-13T04:25:14;16.10;99.90
52495;DHT22;38405;53.212;5.660;2023-10-13T04:27:58;16.10;99.90
52495;DHT22;38405;53.212;5.660;2023-10-13T04:30:36;16.10;99.90
52495;DHT22;38405;53.212;5.660;2023-10-13T04:33:18;16.10;99.90
52495;DHT22;38405;53.212;5.660;2023-10-13T04:36:16;16.10;99.90
52495;DHT22;38405;53.212;5.660;2023-10-13T04:38:49;16.20;99.90
52495;DHT22;38405;53.212;5.660;2023-10-13T04:41:35;16.20;99.90
52495;DHT22;38405;53.212;5.660;2023-10-13T04:44:05;16.20;99.90
52495;DHT22;38405;53.212;5.660;2023-10-13T04:46:48;16.20;99.90
52495;DHT22;38405;53.212;5.660;2023-10-13T04:49:14;16.30;99.90
52495;DHT22;38405;53.212;5.660;2023-10-13T04:51:59;16.30;99.90
52495;DHT22;38405;53.212;5.660;2023-10-13T04:54:29;16.20;99.90
52495;DHT22;38405;53.212;5.660;2023-10-13T04:57:17;16.20;99.90
52495;DHT22;38405;53.212;5.660;2023-10-13T04:59:51;16.20;99.90
52495;DHT22;38405;53.212;5.660;2023-10-13T05:02:29;16.20;99.90
52495;DHT22;38405;53.212;5.660;2023-10-13T05:05:04;16.20;99.90
52495;DHT22;38405;53.212;5.660;2023-10-13T05:08:07;16.20;99.90
52495;DHT22;38405;53.212;5.660;2023-10-13T05:10:51;16.30;99.90
52495;DHT22;38405;53.212;5.660;2023-10-13T05:13:36;16.20;99.90
52495;DHT22;38405;53.212;5.660;2023-10-13T05:16:20;16.20;99.90
52495;DHT22;38405;53.212;5.660;2023-10-13T05:19:04;16.20;99.90
52495;DHT22;38405;53.212;5.660;2023-10-13T05:21:48;16.10;99.90
52495;DHT22;38405;53.212;5.660;2023-10-13T05:24:32;16.10;99.90
52495;DHT22;38405;53.212;5.660;2023-10-13T05:27:16;16.10;99.90
52495;DHT22;38405;53.212;5.660;2023-10-13T05:30:01;16.10;99.90
52495;DHT22;38405;53.212;5.660;2023-10-13T05:32:45;16.10;99.90
52495;DHT22;38405;53.212;5.660;2023-10-13T05:35:30;16.10;99.90
52495;DHT22;38405;53.212;5.660;2023-10-13T05:38:15;16.10;99.90
52495;DHT22;38405;53.212;5.660;2023-10-13T05:41:00;16.10;99.90
52495;DHT22;38405;53.212;5.660;2023-10-13T05:43:44;16.00;99.90
52495;DHT22;38405;53.212;5.660;2023-10-13T05:46:28;15.90;99.90
52495;DHT22;38405;53.212;5.660;2023-10-13T05:49:04;15.90;99.90
52495;DHT22;38405;53.212;5.660;2023-10-13T05:51:42;15.80;99.90
52495;DHT22;38405;53.212;5.660;2023-10-13T05:54:23;15.80;99.90
52495;DHT22;38405;53.212;5.660;2023-10-13T05:57:07;15.80;99.90
52495;DHT22;38405;53.212;5.660;2023-10-13T06:00:05;15.80;99.90
52495;DHT22;38405;53.212;5.660;2023-10-13T06:02:49;15.70;99.90
52495;DHT22;38405;53.212;5.660;2023-10-13T06:05:33;15.70;99.90
52495;DHT22;38405;53.212;5.660;2023-10-13T06:08:18;15.70;99.90
52495;DHT22;38405;53.212;5.660;2023-10-13T06:11:02;15.70;99.90
52495;DHT22;38405;53.212;5.660;2023-10-13T06:13:46;15.70;99.90
52495;DHT22;38405;53.212;5.660;2023-10-13T06:16:30;15.80;99.90
52495;DHT22;38405;53.212;5.660;2023-10-13T06:19:14;15.80;99.90
52495;DHT22;38405;53.212;5.660;2023-10-13T06:21:58;15.90;99.90
52495;DHT22;38405;53.212;5.660;2023-10-13T06:24:42;15.90;99.90
52495;DHT22;38405;53.212;5.660;2023-10-13T06:27:26;15.90;99.90
52495;DHT22;38405;53.212;5.660;2023-10-13T06:30:10;16.00;99.90
52495;DHT22;38405;53.212;5.660;2023-10-13T06:32:37;16.10;99.90
52495;DHT22;38405;53.212;5.660;2023-10-13T06:35:05;16.10;99.90
52495;DHT22;38405;53.212;5.660;2023-10-13T06:37:44;16.20;99.90
52495;DHT22;38405;53.212;5.660;2023-10-13T06:40:11;16.20;99.90
52495;DHT22;38405;53.212;5.660;2023-10-13T06:42:56;16.20;99.90
52495;DHT22;38405;53.212;5.660;2023-10-13T06:45:37;16.20;99.90
52495;DHT22;38405;53.212;5.660;2023-10-13T06:48:02;16.20;99.90
52495;DHT22;38405;53.212;5.660;2023-10-13T06:50:30;16.30;99.90
52495;DHT22;38405;53.212;5.660;2023-10-13T06:53:04;16.30;99.90
52495;DHT22;38405;53.212;5.660;2023-10-13T06:55:30;16.30;99.90
52495;DHT22;38405;53.212;5.660;2023-10-13T06:58:00;16.30;99.90
52495;DHT22;38405;53.212;5.660;2023-10-13T07:00:26;16.30;99.90
52495;DHT22;38405;53.212;5.660;2023-10-13T07:02:59;16.30;99.90
52495;DHT22;38405;53.212;5.660;2023-10-13T07:05:43;16.30;99.90
52495;DHT22;38405;53.212;5.660;2023-10-13T07:08:09;16.30;99.90
52495;DHT22;38405;53.212;5.660;2023-10-13T07:10:35;16.30;99.90
52495;DHT22;38405;53.212;5.660;2023-10-13T07:13:13;16.30;99.90
52495;DHT22;38405;53.212;5.660;2023-10-13T07:15:42;16.30;99.90
52495;DHT22;38405;53.212;5.660;2023-10-13T07:18:14;16.30;99.90
52495;DHT22;38405;53.212;5.660;2023-10-13T07:20:42;16.30;99.90
52495;DHT22;38405;53.212;5.660;2023-10-13T07:23:11;16.30;99.90
52495;DHT22;38405;53.212;5.660;2023-10-13T07:25:43;16.30;99.90
52495;DHT22;38405;53.212;5.660;2023-10-13T07:28:16;16.20;99.90
52495;DHT22;38405;53.212;5.660;2023-10-13T07:30:41;16.20;99.90
52495;DHT22;38405;53.212;5.660;2023-10-13T07:33:17;16.20;99.90
52495;DHT22;38405;53.212;5.660;2023-10-13T07:35:45;16.10;99.90
52495;DHT22;38405;53.212;5.660;2023-10-13T07:38:16;16.10;99.90
52495;DHT22;38405;53.212;5.660;2023-10-13T07:40:42;16.10;99.90
52495;DHT22;38405;53.212;5.660;2023-10-13T07:43:07;16.10;99.90
52495;DHT22;38405;53.212;5.660;2023-10-13T07:45:39;16.10;99.90
52495;DHT22;38405;53.212;5.660;2023-10-13T07:48:09;16.00;99.90
52495;DHT22;38405;53.212;5.660;2023-10-13T07:50:41;16.00;99.90
52495;DHT22;38405;53.212;5.660;2023-10-13T07:53:06;16.00;99.90
52495;DHT22;38405;53.212;5.660;2023-10-13T07:55:45;16.00;99.90
52495;DHT22;38405;53.212;5.660;2023-10-13T07:58:11;16.00;99.90
52495;DHT22;38405;53.212;5.660;2023-10-13T08:00:39;16.00;99.90
52495;DHT22;38405;53.212;5.660;2023-10-13T08:03:10;16.00;99.90
52495;DHT22;38405;53.212;5.660;2023-10-13T08:05:42;16.10;99.90
52495;DHT22;38405;53.212;5.660;2023-10-13T08:08:26;16.10;99.90
52495;DHT22;38405;53.212;5.660;2023-10-13T08:10:52;16.10;99.90
52495;DHT22;38405;53.212;5.660;2023-10-13T08:13:21;16.20;99.90
52495;DHT22;38405;53.212;5.660;2023-10-13T08:15:47;16.20;99.90
52495;DHT22;38405;53.212;5.660;2023-10-13T08:18:16;16.20;99.90
52495;DHT22;38405;53.212;5.660;2023-10-13T08:21:00;16.20;99.90
52495;DHT22;38405;53.212;5.660;2023-10-13T08:23:28;16.30;99.90
52495;DHT22;38405;53.212;5.660;2023-10-13T08:26:24;16.30;99.90
52495;DHT22;38405;53.212;5.660;2023-10-13T08:29:01;16.40;99.90
52495;DHT22;38405;53.212;5.660;2023-10-13T08:31:49;16.50;99.90
52495;DHT22;38405;53.212;5.660;2023-10-13T08:34:30;16.50;99.90
52495;DHT22;38405;53.212;5.660;2023-10-13T08:37:06;16.50;99.90
52495;DHT22;38405;53.212;5.660;2023-10-13T08:39:47;16.60;99.90
52495;DHT22;38405;53.212;5.660;2023-10-13T08:45:09;16.70;99.90
52495;DHT22;38405;53.212;5.660;2023-10-13T08:47:49;16.80;99.90
52495;DHT22;38405;53.212;5.660;2023-10-13T08:50:35;16.90;99.90
52495;DHT22;38405;53.212;5.660;2023-10-13T08:55:56;17.10;99.90
52495;DHT22;38405;53.212;5.660;2023-10-13T08:58:34;17.10;99.90
52495;DHT22;38405;53.212;5.660;2023-10-13T09:01:28;17.20;99.90
52495;DHT22;38405;53.212;5.660;2023-10-13T09:04:13;17.30;99.90
52495;DHT22;38405;53.212;5.660;2023-10-13T09:06:51;17.40;99.90
52495;DHT22;38405;53.212;5.660;2023-10-13T09:12:23;17.60;99.90
52495;DHT22;38405;53.212;5.660;2023-10-13T09:17:45;17.90;99.90
52495;DHT22;38405;53.212;5.660;2023-10-13T09:20:14;18.00;99.90
52495;DHT22;38405;53.212;5.660;2023-10-13T09:22:58;18.20;99.90
52495;DHT22;38405;53.212;5.660;2023-10-13T09:25:29;18.30;99.90
52495;DHT22;38405;53.212;5.660;2023-10-13T09:28:02;18.40;99.90
52495;DHT22;38405;53.212;5.660;2023-10-13T09:30:42;18.40;99.90
52495;DHT22;38405;53.212;5.660;2023-10-13T09:33:07;18.40;99.90
52495;DHT22;38405;53.212;5.660;2023-10-13T09:35:46;18.40;99.90
52495;DHT22;38405;53.212;5.660;2023-10-13T09:38:15;18.40;99.90
52495;DHT22;38405;53.212;5.660;2023-10-13T09:40:42;18.40;99.90
52495;DHT22;38405;53.212;5.660;2023-10-13T09:43:18;18.40;99.90
52495;DHT22;38405;53.212;5.660;2023-10-13T09:45:47;18.30;99.90
52495;DHT22;38405;53.212;5.660;2023-10-13T09:48:36;18.40;99.90
52495;DHT22;38405;53.212;5.660;2023-10-13T09:51:05;18.30;99.90
52495;DHT22;38405;53.212;5.660;2023-10-13T09:53:37;18.30;99.90
52495;DHT22;38405;53.212;5.660;2023-10-13T09:59:01;18.30;99.90
52495;DHT22;38405;53.212;5.660;2023-10-13T10:01:37;18.30;99.90
52495;DHT22;38405;53.212;5.660;2023-10-13T10:04:10;18.30;99.90
52495;DHT22;38405;53.212;5.660;2023-10-13T10:06:58;18.40;99.90
52495;DHT22;38405;53.212;5.660;2023-10-13T10:09:30;18.50;99.90
52495;DHT22;38405;53.212;5.660;2023-10-13T10:12:27;18.60;99.90
52495;DHT22;38405;53.212;5.660;2023-10-13T10:14:58;18.70;99.90
52495;DHT22;38405;53.212;5.660;2023-10-13T10:17:24;18.80;99.90
52495;DHT22;38405;53.212;5.660;2023-10-13T10:19:55;18.80;99.90
52495;DHT22;38405;53.212;5.660;2023-10-13T10:22:34;18.80;99.90
52495;DHT22;38405;53.212;5.660;2023-10-13T10:25:01;18.90;99.90
52495;DHT22;38405;53.212;5.660;2023-10-13T10:27:28;18.90;99.90
52495;DHT22;38405;53.212;5.660;2023-10-13T10:29:58;19.00;99.90
52495;DHT22;38405;53.212;5.660;2023-10-13T10:32:34;19.00;99.90
52495;DHT22;38405;53.212;5.660;2023-10-13T10:35:06;19.10;99.90
52495;DHT22;38405;53.212;5.660;2023-10-13T10:37:33;19.10;99.90
52495;DHT22;38405;53.212;5.660;2023-10-13T10:40:00;19.10;99.90
52495;DHT22;38405;53.212;5.660;2023-10-13T10:42:26;19.10;99.90
52495;DHT22;38405;53.212;5.660;2023-10-13T10:44:54;19.10;99.90
52495;DHT22;38405;53.212;5.660;2023-10-13T10:47:30;19.00;99.90
52495;DHT22;38405;53.212;5.660;2023-10-13T10:50:00;19.00;99.90
52495;DHT22;38405;53.212;5.660;2023-10-13T10:52:32;19.00;99.90
52495;DHT22;38405;53.212;5.660;2023-10-13T10:55:02;19.00;99.90
52495;DHT22;38405;53.212;5.660;2023-10-13T10:57:32;19.00;99.90
52495;DHT22;38405;53.212;5.660;2023-10-13T11:00:05;19.00;99.90
52495;DHT22;38405;53.212;5.660;2023-10-13T11:02:38;19.10;99.90
52495;DHT22;38405;53.212;5.660;2023-10-13T11:05:03;19.30;99.90
52495;DHT22;38405;53.212;5.660;2023-10-13T11:07:31;19.30;99.90
52495;DHT22;38405;53.212;5.660;2023-10-13T11:10:09;19.30;99.90
52495;DHT22;38405;53.212;5.660;2023-10-13T11:12:55;19.20;99.90
52495;DHT22;38405;53.212;5.660;2023-10-13T11:15:21;19.10;99.90
52495;DHT22;38405;53.212;5.660;2023-10-13T11:17:58;19.10;99.90
52495;DHT22;38405;53.212;5.660;2023-10-13T11:20:29;19.10;99.90
52495;DHT22;38405;53.212;5.660;2023-10-13T11:23:12;19.10;99.90
52495;DHT22;38405;53.212;5.660;2023-10-13T11:25:38;19.20;99.90
52495;DHT22;38405;53.212;5.660;2023-10-13T11:28:10;19.20;99.90
52495;DHT22;38405;53.212;5.660;2023-10-13T11:30:42;19.20;99.90
52495;DHT22;38405;53.212;5.660;2023-10-13T11:33:11;19.20;99.90
52495;DHT22;38405;53.212;5.660;2023-10-13T11:35:37;19.00;99.90
52495;DHT22;38405;53.212;5.660;2023-10-13T11:38:39;18.90;99.90
52495;DHT22;38405;53.212;5.660;2023-10-13T11:41:30;18.80;99.90
52495;DHT22;38405;53.212;5.660;2023-10-13T11:44:01;18.50;99.90
52495;DHT22;38405;53.212;5.660;2023-10-13T11:46:38;18.40;99.90
52495;DHT22;38405;53.212;5.660;2023-10-13T11:49:20;18.20;99.90
52495;DHT22;38405;53.212;5.660;2023-10-13T11:51:52;18.10;99.90
52495;DHT22;38405;53.212;5.660;2023-10-13T11:54:18;18.00;99.90
52495;DHT22;38405;53.212;5.660;2023-10-13T11:56:44;17.90;99.90
52495;DHT22;38405;53.212;5.660;2023-10-13T11:59:10;17.80;99.90
52495;DHT22;38405;53.212;5.660;2023-10-13T12:01:50;17.80;99.90
52495;DHT22;38405;53.212;5.660;2023-10-13T12:04:34;17.70;99.90
52495;DHT22;38405;53.212;5.660;2023-10-13T12:07:09;17.70;99.90
52495;DHT22;38405;53.212;5.660;2023-10-13T12:10:05;17.70;99.90
52495;DHT22;38405;53.212;5.660;2023-10-13T12:12:31;17.70;99.90
52495;DHT22;38405;53.212;5.660;2023-10-13T12:15:05;17.60;99.90
52495;DHT22;38405;53.212;5.660;2023-10-13T12:17:34;17.60;99.90
52495;DHT22;38405;53.212;5.660;2023-10-13T12:20:00;17.70;99.90
52495;DHT22;38405;53.212;5.660;2023-10-13T12:22:26;17.70;99.90
52495;DHT22;38405;53.212;5.660;2023-10-13T12:25:04;17.80;99.90
52495;DHT22;38405;53.212;5.660;2023-10-13T12:27:30;17.80;99.90
52495;DHT22;38405;53.212;5.660;2023-10-13T12:30:11;17.70;99.90
52495;DHT22;38405;53.212;5.660;2023-10-13T12:32:38;17.70;99.90
52495;DHT22;38405;53.212;5.660;2023-10-13T12:35:10;17.70;99.90
52495;DHT22;38405;53.212;5.660;2023-10-13T12:37:35;17.70;99.90
52495;DHT22;38405;53.212;5.660;2023-10-13T12:40:04;17.60;99.90
52495;DHT22;38405;53.212;5.660;2023-10-13T12:42:49;17.60;99.90
52495;DHT22;38405;53.212;5.660;2023-10-13T12:45:33;17.50;99.90
52495;DHT22;38405;53.212;5.660;2023-10-13T12:48:17;17.50;99.90
52495;DHT22;38405;53.212;5.660;2023-10-13T12:51:01;17.40;99.90
52495;DHT22;38405;53.212;5.660;2023-10-13T12:53:45;17.40;99.90
52495;DHT22;38405;53.212;5.660;2023-10-13T12:56:11;17.50;99.90
52495;DHT22;38405;53.212;5.660;2023-10-13T12:58:36;17.70;99.90
52495;DHT22;38405;53.212;5.660;2023-10-13T13:01:02;17.70;99.90
52495;DHT22;38405;53.212;5.660;2023-10-13T13:03:34;17.70;99.90
52495;DHT22;38405;53.212;5.660;2023-10-13T13:06:00;17.70;99.90
52495;DHT22;38405;53.212;5.660;2023-10-13T13:08:33;17.70;99.90
52495;DHT22;38405;53.212;5.660;2023-10-13T13:11:08;17.70;99.90
52495;DHT22;38405;53.212;5.660;2023-10-13T13:13:41;17.70;99.90
52495;DHT22;38405;53.212;5.660;2023-10-13T13:16:06;17.70;99.90
52495;DHT22;38405;53.212;5.660;2023-10-13T13:18:34;17.70;99.90
52495;DHT22;38405;53.212;5.660;2023-10-13T13:21:00;17.70;99.90
52495;DHT22;38405;53.212;5.660;2023-10-13T13:23:27;17.70;99.90
52495;DHT22;38405;53.212;5.660;2023-10-13T13:25:53;17.70;99.90
52495;DHT22;38405;53.212;5.660;2023-10-13T13:28:18;17.70;99.90
52495;DHT22;38405;53.212;5.660;2023-10-13T13:30:44;17.70;99.90
52495;DHT22;38405;53.212;5.660;2023-10-13T13:33:11;17.80;99.90
52495;DHT22;38405;53.212;5.660;2023-10-13T13:35:40;17.80;99.90
52495;DHT22;38405;53.212;5.660;2023-10-13T13:38:08;17.90;99.90
52495;DHT22;38405;53.212;5.660;2023-10-13T13:40:47;17.90;99.90
52495;DHT22;38405;53.212;5.660;2023-10-13T13:43:15;18.00;99.90
52495;DHT22;38405;53.212;5.660;2023-10-13T13:45:59;18.10;99.90
52495;DHT22;38405;53.212;5.660;2023-10-13T13:48:28;18.10;99.90
52495;DHT22;38405;53.212;5.660;2023-10-13T13:50:54;18.20;99.90
52495;DHT22;38405;53.212;5.660;2023-10-13T13:53:29;18.30;99.90
52495;DHT22;38405;53.212;5.660;2023-10-13T13:56:03;18.40;99.90
52495;DHT22;38405;53.212;5.660;2023-10-13T13:58:29;18.50;99.90
52495;DHT22;38405;53.212;5.660;2023-10-13T14:01:01;18.60;99.90
52495;DHT22;38405;53.212;5.660;2023-10-13T14:03:37;18.60;99.90
52495;DHT22;38405;53.212;5.660;2023-10-13T14:06:10;18.70;99.90
52495;DHT22;38405;53.212;5.660;2023-10-13T14:08:42;18.70;99.90
52495;DHT22;38405;53.212;5.660;2023-10-13T14:11:10;18.80;99.90
52495;DHT22;38405;53.212;5.660;2023-10-13T14:13:39;18.90;99.90
52495;DHT22;38405;53.212;5.660;2023-10-13T14:16:30;18.90;99.90
52495;DHT22;38405;53.212;5.660;2023-10-13T14:18:59;18.90;99.90
52495;DHT22;38405;53.212;5.660;2023-10-13T14:21:27;19.00;99.90
52495;DHT22;38405;53.212;5.660;2023-10-13T14:23:53;19.00;99.90
52495;DHT22;38405;53.212;5.660;2023-10-13T14:26:19;19.00;99.90
52495;DHT22;38405;53.212;5.660;2023-10-13T14:28:51;19.00;99.90
52495;DHT22;38405;53.212;5.660;2023-10-13T14:31:35;19.00;99.90
52495;DHT22;38405;53.212;5.660;2023-10-13T14:34:04;18.90;99.90
52495;DHT22;38405;53.212;5.660;2023-10-13T14:36:30;18.90;99.90
52495;DHT22;38405;53.212;5.660;2023-10-13T14:39:04;19.00;99.90
52495;DHT22;38405;53.212;5.660;2023-10-13T14:41:36;19.00;99.90
52495;DHT22;38405;53.212;5.660;2023-10-13T14:44:03;19.00;99.90
52495;DHT22;38405;53.212;5.660;2023-10-13T14:46:32;18.90;99.90
52495;DHT22;38405;53.212;5.660;2023-10-13T14:49:01;18.90;99.90
52495;DHT22;38405;53.212;5.660;2023-10-13T14:51:27;18.90;99.90
52495;DHT22;38405;53.212;5.660;2023-10-13T14:53:54;18.90;99.90
52495;DHT22;38405;53.212;5.660;2023-10-13T14:56:21;18.90;99.90
52495;DHT22;38405;53.212;5.660;2023-10-13T14:58:50;18.90;99.90
52495;DHT22;38405;53.212;5.660;2023-10-13T15:01:17;18.80;99.90
52495;DHT22;38405;53.212;5.660;2023-10-13T15:03:47;18.90;99.90
52495;DHT22;38405;53.212;5.660;2023-10-13T15:08:49;18.90;99.90
52495;DHT22;38405;53.212;5.660;2023-10-13T15:11:14;18.80;99.90
52495;DHT22;38405;53.212;5.660;2023-10-13T15:52:39;18.80;99.90
52495;DHT22;38405;53.212;5.660;2023-10-13T15:55:14;18.90;99.90
52495;DHT22;38405;53.212;5.660;2023-10-13T15:57:41;18.80;99.90
52495;DHT22;38405;53.212;5.660;2023-10-13T16:00:11;18.80;99.90
52495;DHT22;38405;53.212;5.660;2023-10-13T16:02:55;18.70;99.90
52495;DHT22;38405;53.212;5.660;2023-10-13T16:05:23;18.60;99.90
52495;DHT22;38405;53.212;5.660;2023-10-13T16:07:51;18.60;99.90
52495;DHT22;38405;53.212;5.660;2023-10-13T16:10:21;18.50;99.90
52495;DHT22;38405;53.212;5.660;2023-10-13T16:12:47;18.50;99.90
52495;DHT22;38405;53.212;5.660;2023-10-13T16:15:12;18.40;99.90
52495;DHT22;38405;53.212;5.660;2023-10-13T16:17:41;18.40;99.90
52495;DHT22;38405;53.212;5.660;2023-10-13T16:20:08;18.30;99.90
52495;DHT22;38405;53.212;5.660;2023-10-13T16:22:47;18.30;99.90
52495;DHT22;38405;53.212;5.660;2023-10-13T16:25:15;18.20;99.90
52495;DHT22;38405;53.212;5.660;2023-10-13T16:27:42;18.20;99.90
52495;DHT22;38405;53.212;5.660;2023-10-13T16:30:12;18.20;99.90
52495;DHT22;38405;53.212;5.660;2023-10-13T16:32:44;18.10;99.90
52495;DHT22;38405;53.212;5.660;2023-10-13T16:35:13;18.10;99.90
52495;DHT22;38405;53.212;5.660;2023-10-13T16:37:44;18.00;99.90
52495;DHT22;38405;53.212;5.660;2023-10-13T16:40:15;18.00;99.90
52495;DHT22;38405;53.212;5.660;2023-10-13T16:42:40;17.90;99.90
52495;DHT22;38405;53.212;5.660;2023-10-13T16:45:06;17.90;99.90
52495;DHT22;38405;53.212;5.660;2023-10-13T16:47:46;17.80;99.90
52495;DHT22;38405;53.212;5.660;2023-10-13T16:50:12;17.80;99.90
52495;DHT22;38405;53.212;5.660;2023-10-13T16:52:45;17.80;99.90
52495;DHT22;38405;53.212;5.660;2023-10-13T16:55:18;17.80;99.90
52495;DHT22;38405;53.212;5.660;2023-10-13T16:57:45;17.80;99.90
52495;DHT22;38405;53.212;5.660;2023-10-13T17:00:19;17.70;99.90
52495;DHT22;38405;53.212;5.660;2023-10-13T17:02:51;17.70;99.90
52495;DHT22;38405;53.212;5.660;2023-10-13T17:05:18;17.70;99.90